KAC673 OKKK-OMDB
Flight info
| Callsign | KAC673 |
|---|---|
| Flight time | N/A |
| Altitude | 37000 |
| Route | SESRU M677 VUTEB |
| Aircraft | A320/M-SDE3FGHIRWY/LB1 |
Departure
| Time | 2026-05-08 11:24 |
|---|---|
| Airport | Kuwait International Airport (OKKK) |
Arrival
| Time | N/A |
|---|---|
| Airport | Dubai International Airport (OMDB) |
| Time | Latitude | Longitude | Altitude | Speed | Heading |
|---|---|---|---|---|---|
| 2026-05-08 11:02 | 29.23814 | 47.97158 | 167 ft | 0 kts | 83° |
| 2026-05-08 11:13 | 29.23813 | 47.97153 | 167 ft | 2 kts | 85° |
| 2026-05-08 11:13 | 29.23812 | 47.97134 | 167 ft | 2 kts | 85° |
| 2026-05-08 11:14 | 29.23810 | 47.97114 | 167 ft | 2 kts | 85° |
| 2026-05-08 11:14 | 29.23809 | 47.97094 | 167 ft | 3 kts | 85° |
| 2026-05-08 11:14 | 29.23804 | 47.97076 | 167 ft | 3 kts | 75° |
| 2026-05-08 11:14 | 29.23799 | 47.97057 | 167 ft | 2 kts | 75° |
| 2026-05-08 11:15 | 29.23798 | 47.97043 | 167 ft | 0 kts | 108° |
| 2026-05-08 11:17 | 29.23779 | 47.97067 | 167 ft | 10 kts | 146° |
| 2026-05-08 11:17 | 29.23708 | 47.97105 | 167 ft | 11 kts | 154° |
| 2026-05-08 11:17 | 29.23649 | 47.97143 | 167 ft | 7 kts | 147° |
| 2026-05-08 11:18 | 29.23614 | 47.97173 | 167 ft | 6 kts | 141° |
| 2026-05-08 11:18 | 29.23583 | 47.97192 | 167 ft | 4 kts | 163° |
| 2026-05-08 11:18 | 29.23538 | 47.97155 | 167 ft | 15 kts | 243° |
| 2026-05-08 11:18 | 29.23479 | 47.97047 | 166 ft | 16 kts | 197° |
| 2026-05-08 11:19 | 29.23378 | 47.97091 | 166 ft | 15 kts | 155° |
| 2026-05-08 11:19 | 29.23285 | 47.97131 | 167 ft | 13 kts | 179° |
| 2026-05-08 11:19 | 29.23236 | 47.97058 | 166 ft | 13 kts | 245° |
| 2026-05-08 11:19 | 29.23195 | 47.96957 | 166 ft | 14 kts | 245° |
| 2026-05-08 11:20 | 29.23141 | 47.96884 | 166 ft | 11 kts | 173° |
| 2026-05-08 11:20 | 29.23081 | 47.96917 | 167 ft | 8 kts | 155° |
| 2026-05-08 11:20 | 29.22989 | 47.96967 | 168 ft | 22 kts | 153° |
| 2026-05-08 11:20 | 29.22845 | 47.97042 | 167 ft | 23 kts | 154° |
| 2026-05-08 11:21 | 29.22694 | 47.97122 | 167 ft | 25 kts | 155° |
| 2026-05-08 11:21 | 29.22534 | 47.97206 | 167 ft | 26 kts | 155° |
| 2026-05-08 11:21 | 29.22362 | 47.97300 | 167 ft | 29 kts | 154° |
| 2026-05-08 11:21 | 29.22173 | 47.97400 | 167 ft | 30 kts | 156° |
| 2026-05-08 11:22 | 29.21979 | 47.97503 | 166 ft | 31 kts | 154° |
| 2026-05-08 11:22 | 29.21781 | 47.97609 | 166 ft | 32 kts | 155° |
| 2026-05-08 11:22 | 29.21581 | 47.97715 | 168 ft | 32 kts | 155° |
| 2026-05-08 11:22 | 29.21382 | 47.97820 | 170 ft | 31 kts | 155° |
| 2026-05-08 11:23 | 29.21249 | 47.97810 | 170 ft | 20 kts | 246° |
| 2026-05-08 11:23 | 29.21291 | 47.97662 | 170 ft | 24 kts | 307° |
| 2026-05-08 11:23 | 29.21525 | 47.97495 | 167 ft | 68 kts | 335° |
| 2026-05-08 11:23 | 29.22154 | 47.97161 | 166 ft | 128 kts | 335° |
| 2026-05-08 11:24 | 29.23115 | 47.96652 | 183 ft | 172 kts | 336° |
| 2026-05-08 11:24 | 29.24204 | 47.96070 | 796 ft | 173 kts | 336° |
| 2026-05-08 11:24 | 29.25295 | 47.95490 | 1485 ft | 174 kts | 336° |
| 2026-05-08 11:24 | 29.26448 | 47.94879 | 1806 ft | 193 kts | 336° |
| 2026-05-08 11:25 | 29.27738 | 47.94196 | 2042 ft | 216 kts | 333° |
| 2026-05-08 11:25 | 29.29240 | 47.93660 | 2316 ft | 238 kts | 357° |
| 2026-05-08 11:25 | 29.30843 | 47.94127 | 3238 ft | 240 kts | 30° |
| 2026-05-08 11:25 | 29.31988 | 47.95477 | 4342 ft | 240 kts | 57° |
| 2026-05-08 11:26 | 29.32620 | 47.97278 | 5041 ft | 256 kts | 79° |
| 2026-05-08 11:26 | 29.32512 | 47.99407 | 5388 ft | 281 kts | 100° |
| 2026-05-08 11:26 | 29.32101 | 48.01635 | 6041 ft | 289 kts | 101° |
| 2026-05-08 11:26 | 29.31663 | 48.03901 | 6770 ft | 294 kts | 102° |
| 2026-05-08 11:27 | 29.31212 | 48.06213 | 7471 ft | 300 kts | 102° |
| 2026-05-08 11:27 | 29.30758 | 48.08572 | 8163 ft | 306 kts | 103° |
| 2026-05-08 11:27 | 29.30300 | 48.10968 | 8838 ft | 310 kts | 103° |
| 2026-05-08 11:27 | 29.29838 | 48.13402 | 9480 ft | 316 kts | 103° |
| 2026-05-08 11:28 | 29.29373 | 48.15879 | 10134 ft | 320 kts | 104° |
| 2026-05-08 11:28 | 29.28891 | 48.18449 | 10364 ft | 341 kts | 104° |
| 2026-05-08 11:28 | 29.28372 | 48.21202 | 10498 ft | 365 kts | 104° |
| 2026-05-08 11:28 | 29.27821 | 48.24120 | 10624 ft | 385 kts | 104° |
| 2026-05-08 11:29 | 29.27242 | 48.27184 | 10755 ft | 403 kts | 104° |
| 2026-05-08 11:29 | 29.26641 | 48.30372 | 11079 ft | 414 kts | 104° |
| 2026-05-08 11:29 | 29.26034 | 48.33614 | 11612 ft | 417 kts | 104° |
| 2026-05-08 11:29 | 29.25425 | 48.36869 | 12213 ft | 420 kts | 104° |
| 2026-05-08 11:30 | 29.25148 | 48.38346 | 12495 ft | 420 kts | 105° |
| 2026-05-08 11:32 | 29.25008 | 48.39102 | 12567 ft | 423 kts | 104° |
| 2026-05-08 11:32 | 29.24393 | 48.42394 | 12759 ft | 421 kts | 105° |
| 2026-05-08 11:33 | 29.23930 | 48.44844 | 13155 ft | 423 kts | 105° |